CheckWX is a tool to help pilots better visualize weather data.  It is not intended as a substitute for an official pre-flight weather briefing.

22:33:18 UTC

9L2 METAR
Edwards Af Aux North Base Airport
Edwards, California, USA
Current

35 mins ago

K9L2 262158Z AUTO 21014G17KT 8SM CLR 24/M11 A2996 RMK AO2 SLP137 T02361109
Observed
Mar-26 @ 21:58 UTC
Wind
  • 210° at 14 KTS
  • Gusting to 17 KTS
Visibility
8 SM
Flight Rules
VFR
Cloud Levels
  • Clear skies
Temperature
24°C / 75°F
Dewpoint
-11°C / 12°F
Humidity
9%
Altimeter
29.96" Hg
Pressure
1013.7 hPa
Previous

2 hours ago

K9L2 262058Z AUTO 20014KT 9SM FEW230 23/M12 A2998 RMK AO2 SLP142 T02301116 57021
Observed
Mar-26 @ 20:58 UTC
Wind
  • 200° at 14 KTS
Visibility
9 SM
Flight Rules
VFR
Cloud Levels
  • Few at 23,000' AGL
Temperature
23°C / 73°F
Dewpoint
-12°C / 10°F
Humidity
9%
Altimeter
29.98" Hg
Pressure
1014.2 hPa
Previous

3 hours ago

K9L2 261958Z AUTO 21010KT 9SM CLR 21/M06 A3000 RMK AO2 SLP149 T02111062
Observed
Mar-26 @ 19:58 UTC
Wind
  • 210° at 10 KTS
Visibility
9 SM
Flight Rules
VFR
Cloud Levels
  • Clear skies
Temperature
21°C / 70°F
Dewpoint
-6°C / 21°F
Humidity
16%
Altimeter
30" Hg
Pressure
1014.9 hPa